Imperial Eagle — V7TK5 — position and weather

sailwx.info

Track history (hours):
 
Tides and Currents Weather Stations Pressure Air Temp Water Temp Dewpoint Dewpoint Depression Visibility Wind Speed Wind Dir Waves Ship Positions

Imperial Eagle

Last reported at 2017-Nov-18 08:44 UTC. Time now 2017-Nov-19 08:50 UTC.
Position N 29°31' W 014°49'.

Length 190 m; draft 12.5 m.

Type: Cargo ship. MMSI: 256759020.

Date/timePositionNaut miles runAvg speedWind from/ knotsBaromVisibWave heightAir tempDewpointWater temp
2017-Nov-18 08:44N 29°31' W 014°49'4 9.5
2017-Nov-18 08:20N 29°28' W 014°52'5 9.4
2017-Nov-18 07:50N 29°24' W 014°55'5 9.3
2017-Nov-18 07:20N 29°21' W 014°59'7 9.3
2017-Nov-18 06:36N 29°16' W 015°04'1 9.2
2017-Nov-18 06:29N 29°15' W 015°04'4 9.1
2017-Nov-18 06:00N 29°11' W 015°08'5 9.1
2017-Nov-18 05:25N 29°07' W 015°12'4 9.0
2017-Nov-18 04:58N 29°04' W 015°15'4 8.9
2017-Nov-18 04:30N 29°01' W 015°17'4 8.9
2017-Nov-18 04:00N 28°57' W 015°20'5 9.0
2017-Nov-18 03:30N 28°54' W 015°24'5 9.2
2017-Nov-18 03:00N 28°50' W 015°27'5 9.1
2017-Nov-18 02:30N 28°46' W 015°30'5 9.1
2017-Nov-18 02:00N 28°43' W 015°33'4 9.0
2017-Nov-18 01:30N 28°39' W 015°36'5 9.3
2017-Nov-18 01:00N 28°36' W 015°40'5 9.4
2017-Nov-18 00:30N 28°32' W 015°43'5 9.5
2017-Nov-18 00:00N 28°28' W 015°47'5 9.3
2017-Nov-17 23:30N 28°25' W 015°50'5 9.3
2017-Nov-17 23:00N 28°21' W 015°53'5 9.4
2017-Nov-17 22:30N 28°18' W 015°57'  
Track history (hours):
 
Tides and Currents Weather Stations Pressure Air Temp Water Temp Dewpoint Dewpoint Depression Visibility Wind Speed Wind Dir Waves Ship Positions

Imperial Eagle

Last reported at 2017-Nov-18 08:44 UTC. Time now 2017-Nov-19 08:50 UTC.
Position N 29°31' W 014°49'.

Length 190 m; draft 12.5 m.

Type: Cargo ship. MMSI: 256759020.

Date/timePositionNaut miles runAvg speedWind from/ knotsBaromVisibWave heightAir tempDewpointWater temp
2017-Nov-18 08:44N 29°31' W 014°49'4 9.5
2017-Nov-18 08:20N 29°28' W 014°52'5 9.4
2017-Nov-18 07:50N 29°24' W 014°55'5 9.3
2017-Nov-18 07:20N 29°21' W 014°59'7 9.3
2017-Nov-18 06:36N 29°16' W 015°04'1 9.2
2017-Nov-18 06:29N 29°15' W 015°04'4 9.1
2017-Nov-18 06:00N 29°11' W 015°08'5 9.1
2017-Nov-18 05:25N 29°07' W 015°12'4 9.0
2017-Nov-18 04:58N 29°04' W 015°15'4 8.9
2017-Nov-18 04:30N 29°01' W 015°17'4 8.9
2017-Nov-18 04:00N 28°57' W 015°20'5 9.0
2017-Nov-18 03:30N 28°54' W 015°24'5 9.2
2017-Nov-18 03:00N 28°50' W 015°27'5 9.1
2017-Nov-18 02:30N 28°46' W 015°30'5 9.1
2017-Nov-18 02:00N 28°43' W 015°33'4 9.0
2017-Nov-18 01:30N 28°39' W 015°36'5 9.3
2017-Nov-18 01:00N 28°36' W 015°40'5 9.4
2017-Nov-18 00:30N 28°32' W 015°43'5 9.5
2017-Nov-18 00:00N 28°28' W 015°47'5 9.3
2017-Nov-17 23:30N 28°25' W 015°50'5 9.3
2017-Nov-17 23:00N 28°21' W 015°53'5 9.4
2017-Nov-17 22:30N 28°18' W 015°57'  

Dump ship's entire track history